createdAt,value
2022-10-13T00:01:01.242Z,69.61
2022-10-13T00:03:28.385Z,69.75
2022-10-13T00:05:55.391Z,69.44
2022-10-13T00:08:22.437Z,69.69
2022-10-13T00:10:51.277Z,69.66
2022-10-13T00:13:24.258Z,69.77
2022-10-13T00:15:51.344Z,69.81
2022-10-13T00:18:18.732Z,69.45
2022-10-13T00:20:49.005Z,69.57
2022-10-13T00:23:17.367Z,69.50
2022-10-13T00:25:50.214Z,69.55
2022-10-13T00:28:20.847Z,69.42
2022-10-13T00:30:48.030Z,69.20
2022-10-13T00:33:15.202Z,69.87
2022-10-13T00:35:44.836Z,69.73
2022-10-13T00:38:17.094Z,70.64
2022-10-13T00:40:49.776Z,70.16
2022-10-13T00:43:21.919Z,69.93
2022-10-13T00:45:52.279Z,70.18
2022-10-13T00:48:23.983Z,70.50
2022-10-13T00:50:52.172Z,70.54
2022-10-13T00:53:23.073Z,70.61
2022-10-13T00:55:52.398Z,70.88
2022-10-13T00:58:23.963Z,70.80
2022-10-13T01:00:53.156Z,71.40
2022-10-13T01:03:21.399Z,71.22
2022-10-13T01:05:50.305Z,71.41
2022-10-13T01:08:19.747Z,70.85
2022-10-13T01:11:07.327Z,71.45
2022-10-13T01:14:03.708Z,71.57
2022-10-13T01:17:00.501Z,71.51
2022-10-13T01:19:51.816Z,71.61
2022-10-13T01:23:00.729Z,71.63
2022-10-13T01:25:48.956Z,71.21
2022-10-13T01:28:25.026Z,71.40
2022-10-13T01:30:59.193Z,71.41
2022-10-13T01:34:04.997Z,71.23
2022-10-13T01:36:48.575Z,71.74
2022-10-13T01:39:28.304Z,71.23
2022-10-13T01:42:01.694Z,70.92
2022-10-13T01:44:37.120Z,71.34
2022-10-13T01:47:06.307Z,71.51
2022-10-13T01:49:36.127Z,71.69
2022-10-13T01:52:08.491Z,71.74
2022-10-13T01:54:35.756Z,71.63
2022-10-13T01:57:03.009Z,71.91
2022-10-13T01:59:34.046Z,71.87
2022-10-13T02:02:17.768Z,71.46
2022-10-13T02:05:09.322Z,71.72
2022-10-13T02:07:48.629Z,71.77
2022-10-13T02:10:40.416Z,71.36
2022-10-13T02:13:09.496Z,71.24
2022-10-13T02:15:54.550Z,71.32
2022-10-13T02:18:29.309Z,71.68
2022-10-13T02:20:57.203Z,71.64
2022-10-13T02:23:24.724Z,71.65
2022-10-13T02:25:51.836Z,71.65
2022-10-13T02:28:19.698Z,71.17
2022-10-13T02:30:47.230Z,71.44
2022-10-13T02:33:15.795Z,71.28
2022-10-13T02:35:43.661Z,71.23
2022-10-13T02:38:11.226Z,71.67
2022-10-13T02:40:38.705Z,71.57
2022-10-13T02:43:05.947Z,71.82
2022-10-13T02:45:32.970Z,71.78
2022-10-13T02:48:00.136Z,71.99
2022-10-13T02:50:27.268Z,71.88
2022-10-13T02:52:56.887Z,71.93
2022-10-13T02:55:24.021Z,71.83
2022-10-13T02:57:57.004Z,72.06
2022-10-13T03:00:24.202Z,71.95
2022-10-13T03:02:51.320Z,71.82
2022-10-13T03:05:18.608Z,71.96
2022-10-13T03:07:45.985Z,71.92
2022-10-13T03:10:13.380Z,71.75
2022-10-13T03:12:40.395Z,71.74
2022-10-13T03:15:08.228Z,71.93
2022-10-13T03:17:35.378Z,71.54
2022-10-13T03:20:02.398Z,71.61
2022-10-13T03:22:32.462Z,71.39
2022-10-13T03:24:59.781Z,71.56
2022-10-13T03:27:26.967Z,71.69
2022-10-13T03:29:54.081Z,71.18
2022-10-13T03:32:21.435Z,71.15
2022-10-13T03:34:48.790Z,71.07
2022-10-13T03:37:16.098Z,70.87
2022-10-13T03:39:43.654Z,71.30
2022-10-13T03:42:11.221Z,70.93
2022-10-13T03:44:39.492Z,71.06
2022-10-13T03:47:06.488Z,70.86
2022-10-13T03:49:33.517Z,70.57
2022-10-13T03:52:00.698Z,70.89
2022-10-13T03:54:27.784Z,70.73
2022-10-13T03:56:54.867Z,70.72
2022-10-13T03:59:22.012Z,70.61
2022-10-13T04:01:49.187Z,70.91
2022-10-13T04:04:16.571Z,70.52
2022-10-13T04:06:43.900Z,70.40
2022-10-13T04:09:11.107Z,70.45
2022-10-13T04:11:38.261Z,70.72
2022-10-13T04:14:05.278Z,70.53
2022-10-13T04:16:32.499Z,70.51
2022-10-13T04:19:03.180Z,70.45
2022-10-13T04:21:33.440Z,70.10
2022-10-13T04:24:01.917Z,70.57
2022-10-13T04:26:31.627Z,70.48
2022-10-13T04:29:02.781Z,70.71
2022-10-13T04:31:31.132Z,70.40
2022-10-13T04:33:58.698Z,70.54
2022-10-13T04:36:26.932Z,70.25
2022-10-13T04:38:54.834Z,70.01
2022-10-13T04:41:22.382Z,69.98
2022-10-13T04:43:50.423Z,69.88
2022-10-13T04:46:22.793Z,70.08
2022-10-13T04:48:52.133Z,69.33
2022-10-13T04:51:25.013Z,69.60
2022-10-13T04:53:59.826Z,69.16
2022-10-13T04:56:27.870Z,68.98
2022-10-13T04:58:55.122Z,69.04
2022-10-13T05:01:24.511Z,68.97
2022-10-13T05:03:56.922Z,69.16
2022-10-13T05:06:27.689Z,69.19
2022-10-13T05:08:58.186Z,68.57
2022-10-13T05:11:26.922Z,68.61
2022-10-13T05:13:55.134Z,68.45
2022-10-13T05:16:23.421Z,68.28
2022-10-13T05:18:53.043Z,67.94
2022-10-13T05:21:22.946Z,67.88
2022-10-13T05:23:54.121Z,67.44
2022-10-13T05:26:22.918Z,67.31
2022-10-13T05:28:50.325Z,67.21
2022-10-13T05:31:20.460Z,67.04
2022-10-13T05:33:48.827Z,66.14
2022-10-13T05:36:30.311Z,66.30
2022-10-13T05:38:59.365Z,65.99
2022-10-13T05:41:28.732Z,66.00
2022-10-13T05:44:02.274Z,65.56
2022-10-13T05:46:29.426Z,65.26
2022-10-13T05:48:56.591Z,65.99
2022-10-13T05:51:33.908Z,65.79
2022-10-13T05:54:30.963Z,65.48
2022-10-13T05:57:06.702Z,64.86
2022-10-13T05:59:37.630Z,64.77
2022-10-13T06:02:08.553Z,64.65
2022-10-13T06:04:40.726Z,64.36
2022-10-13T06:07:10.039Z,63.98
2022-10-13T06:09:40.200Z,63.27
2022-10-13T06:12:08.487Z,62.55
2022-10-13T06:14:36.014Z,61.40
2022-10-13T06:17:06.399Z,61.29
2022-10-13T06:19:33.473Z,60.59
2022-10-13T06:22:07.956Z,60.06
2022-10-13T06:24:35.079Z,60.38
2022-10-13T06:27:04.309Z,59.76
2022-10-13T06:29:33.215Z,59.81
2022-10-13T06:32:00.436Z,59.37
2022-10-13T06:34:27.656Z,59.65
2022-10-13T06:36:54.708Z,59.21
2022-10-13T06:39:21.798Z,58.49
2022-10-13T06:41:50.628Z,58.59
2022-10-13T06:44:17.818Z,58.48
2022-10-13T06:46:44.898Z,58.32
2022-10-13T06:49:11.970Z,58.60
2022-10-13T06:51:39.147Z,58.27
2022-10-13T06:54:06.305Z,58.55
2022-10-13T06:56:33.685Z,58.04
2022-10-13T06:59:05.872Z,58.25
2022-10-13T07:01:39.196Z,57.71
2022-10-13T07:04:13.057Z,57.07
2022-10-13T07:06:40.219Z,56.73
2022-10-13T07:09:08.527Z,56.63
2022-10-13T07:11:35.967Z,56.58
2022-10-13T07:14:03.484Z,56.13
2022-10-13T07:16:31.112Z,56.07
2022-10-13T07:18:58.266Z,56.30
2022-10-13T07:21:25.313Z,56.42
2022-10-13T07:23:52.426Z,56.60
2022-10-13T07:26:19.960Z,56.44
2022-10-13T07:28:47.224Z,55.69
2022-10-13T07:31:17.954Z,54.75
2022-10-13T07:33:46.565Z,54.02
2022-10-13T07:36:18.171Z,54.63
2022-10-13T07:38:46.318Z,54.84
2022-10-13T07:41:14.188Z,54.72
2022-10-13T07:43:41.819Z,54.81
2022-10-13T07:46:09.164Z,55.20
2022-10-13T07:48:36.690Z,55.37
2022-10-13T07:51:09.099Z,56.25
2022-10-13T07:53:36.429Z,56.63
2022-10-13T07:56:06.379Z,57.04
2022-10-13T07:58:36.764Z,56.88
2022-10-13T08:01:05.232Z,58.14
2022-10-13T08:03:41.094Z,58.47
2022-10-13T08:06:14.900Z,58.20
2022-10-13T08:08:41.923Z,57.94
2022-10-13T08:11:16.474Z,57.84
2022-10-13T08:13:51.159Z,57.92
2022-10-13T08:16:21.463Z,57.53
2022-10-13T08:18:49.032Z,58.18
2022-10-13T08:24:12.022Z,57.97
2022-10-13T08:26:39.244Z,57.79
2022-10-13T08:29:21.510Z,57.78
2022-10-13T08:34:23.896Z,57.18
2022-10-13T08:36:54.606Z,56.63
2022-10-13T08:39:23.568Z,56.82
2022-10-13T08:41:51.144Z,56.23
2022-10-13T08:47:47.145Z,55.49
2022-10-13T08:50:19.706Z,55.23
2022-10-13T08:52:52.796Z,55.54
2022-10-13T08:55:41.576Z,55.33
2022-10-13T08:58:27.192Z,55.80
2022-10-13T09:01:09.365Z,55.92
2022-10-13T09:03:54.684Z,56.32
2022-10-13T09:06:28.577Z,56.05
2022-10-13T09:09:01.843Z,55.94
2022-10-13T09:11:35.355Z,55.66
2022-10-13T09:14:06.169Z,55.45
2022-10-13T09:16:41.917Z,54.92
2022-10-13T09:19:30.213Z,55.11
2022-10-13T09:22:14.321Z,55.04
2022-10-13T09:24:41.455Z,54.87
2022-10-13T09:27:26.656Z,54.03
2022-10-13T09:29:53.814Z,54.11
2022-10-13T09:32:25.705Z,54.11
2022-10-13T09:34:55.651Z,54.26
2022-10-13T09:37:25.582Z,54.12
2022-10-13T09:40:20.278Z,54.26
2022-10-13T09:42:53.507Z,54.02
2022-10-13T09:45:24.597Z,53.71
2022-10-13T09:47:56.519Z,53.18
2022-10-13T09:50:28.479Z,52.79
2022-10-13T09:53:21.394Z,52.46
2022-10-13T09:55:49.762Z,52.76
2022-10-13T09:58:28.752Z,52.62
2022-10-13T10:00:57.885Z,52.44
2022-10-13T10:03:34.757Z,52.24
2022-10-13T10:06:05.936Z,52.20
2022-10-13T10:09:03.114Z,51.70
2022-10-13T10:11:37.755Z,51.78
2022-10-13T10:14:25.435Z,51.90
2022-10-13T10:17:18.635Z,52.22
2022-10-13T10:20:10.509Z,52.44
2022-10-13T10:22:51.392Z,52.82
2022-10-13T10:25:39.983Z,52.52
2022-10-13T10:28:49.138Z,52.18
2022-10-13T10:31:57.445Z,52.45
2022-10-13T10:34:46.043Z,51.84
2022-10-13T10:37:25.494Z,51.92
2022-10-13T10:40:11.919Z,51.33
2022-10-13T10:43:20.671Z,52.36
2022-10-13T10:45:48.827Z,52.18
2022-10-13T10:48:25.008Z,51.61
2022-10-13T10:50:53.466Z,51.88
2022-10-13T10:53:27.984Z,52.51
2022-10-13T10:56:20.467Z,52.34
2022-10-13T10:58:53.585Z,52.53
2022-10-13T11:01:42.872Z,52.78
2022-10-13T11:04:31.694Z,52.50
2022-10-13T11:06:59.224Z,52.71
2022-10-13T11:09:41.479Z,52.54
2022-10-13T11:12:53.075Z,52.64
2022-10-13T11:15:28.889Z,52.74
2022-10-13T11:17:55.968Z,52.86
2022-10-13T11:20:25.179Z,52.93
2022-10-13T11:23:04.057Z,52.79
2022-10-13T11:25:41.195Z,52.69
2022-10-13T11:28:23.766Z,53.55
2022-10-13T11:31:18.686Z,53.32
2022-10-13T11:33:47.941Z,53.55
2022-10-13T11:36:51.700Z,52.94
2022-10-13T11:42:31.906Z,52.68
2022-10-13T11:45:04.854Z,52.46
2022-10-13T11:47:59.577Z,52.35
2022-10-13T11:50:35.334Z,52.37
2022-10-13T11:53:18.836Z,52.28
2022-10-13T11:55:51.776Z,52.23
2022-10-13T11:58:24.820Z,52.63
2022-10-13T12:01:00.153Z,52.26
2022-10-13T12:03:39.315Z,52.23
2022-10-13T12:06:33.883Z,52.11
2022-10-13T12:09:03.957Z,52.83
2022-10-13T12:11:34.360Z,52.81
2022-10-13T12:14:02.392Z,52.53
2022-10-13T12:16:30.201Z,52.33
2022-10-13T12:19:26.141Z,51.79
2022-10-13T12:21:55.963Z,51.76
2022-10-13T12:24:25.655Z,51.38
2022-10-13T12:26:53.366Z,51.42
2022-10-13T12:29:25.027Z,51.12
2022-10-13T12:31:53.094Z,51.30
2022-10-13T12:34:29.564Z,51.35
2022-10-13T12:37:14.959Z,50.84
2022-10-13T12:39:42.144Z,50.63
2022-10-13T12:42:14.184Z,50.55
2022-10-13T12:44:41.738Z,50.57
2022-10-13T12:47:48.990Z,51.73
2022-10-13T12:50:28.276Z,51.03
2022-10-13T12:53:15.831Z,51.69
2022-10-13T12:55:48.037Z,52.91
2022-10-13T12:58:21.891Z,53.49
2022-10-13T13:01:09.316Z,53.65
2022-10-13T13:03:38.915Z,53.64
2022-10-13T13:06:18.220Z,54.00
2022-10-13T13:08:46.878Z,54.00
2022-10-13T13:11:23.178Z,54.40
2022-10-13T13:14:34.840Z,54.56
2022-10-13T13:17:45.409Z,54.45
2022-10-13T13:20:32.462Z,54.17
2022-10-13T13:23:00.836Z,54.00
2022-10-13T13:25:28.144Z,54.31
2022-10-13T13:27:55.285Z,54.61
2022-10-13T13:30:23.807Z,54.43
2022-10-13T13:32:51.231Z,54.75
2022-10-13T13:35:18.967Z,54.39
2022-10-13T13:37:49.887Z,54.43
2022-10-13T13:40:19.875Z,54.76
2022-10-13T13:42:47.075Z,54.83
2022-10-13T13:45:20.728Z,54.51
2022-10-13T13:47:48.521Z,54.29
2022-10-13T13:50:22.841Z,54.24
2022-10-13T13:53:00.322Z,53.90
2022-10-13T13:55:29.827Z,53.49
2022-10-13T13:57:58.065Z,53.41
2022-10-13T14:00:25.592Z,54.49
2022-10-13T14:02:57.453Z,54.87
2022-10-13T14:05:25.141Z,55.91
2022-10-13T14:07:57.966Z,55.75
2022-10-13T14:10:27.088Z,56.29
2022-10-13T14:12:54.546Z,56.30
2022-10-13T14:15:28.821Z,55.69
2022-10-13T14:17:57.295Z,56.13
2022-10-13T14:20:24.674Z,55.81
2022-10-13T14:22:51.808Z,56.19
2022-10-13T14:25:19.970Z,56.25
2022-10-13T14:27:47.169Z,56.08
2022-10-13T14:30:14.783Z,56.26
2022-10-13T14:32:42.050Z,56.29
2022-10-13T14:35:09.498Z,56.28
2022-10-13T14:37:36.645Z,56.57
2022-10-13T14:40:04.193Z,57.33
2022-10-13T14:42:32.982Z,56.69
2022-10-13T14:45:00.327Z,56.65
2022-10-13T14:47:28.329Z,56.96
2022-10-13T14:49:55.589Z,56.61
2022-10-13T14:52:22.911Z,57.02
2022-10-13T14:54:50.150Z,56.63
2022-10-13T14:57:17.639Z,57.06
2022-10-13T14:59:46.339Z,56.85
2022-10-13T15:02:14.348Z,57.18
2022-10-13T15:04:52.204Z,57.82
2022-10-13T15:07:20.021Z,58.01
2022-10-13T15:10:00.538Z,57.71
2022-10-13T15:12:35.106Z,58.02
2022-10-13T15:15:02.610Z,58.61
2022-10-13T15:17:31.374Z,58.38
2022-10-13T15:19:58.601Z,59.08
2022-10-13T15:22:26.339Z,59.22
2022-10-13T15:24:53.515Z,59.43
2022-10-13T15:27:20.739Z,59.21
2022-10-13T15:29:47.773Z,59.50
2022-10-13T15:32:18.856Z,59.44
2022-10-13T15:34:55.282Z,59.71
2022-10-13T15:37:22.468Z,59.91
2022-10-13T15:39:54.506Z,59.83
2022-10-13T15:42:24.125Z,60.63
2022-10-13T15:45:08.680Z,60.33
2022-10-13T15:47:38.946Z,60.98
2022-10-13T15:50:08.640Z,61.26
2022-10-13T15:52:41.978Z,61.68
2022-10-13T15:55:15.083Z,61.92
2022-10-13T15:57:44.174Z,62.69
2022-10-13T16:00:13.511Z,63.09
2022-10-13T16:02:42.929Z,63.98
2022-10-13T16:05:12.572Z,63.35
2022-10-13T16:07:40.863Z,63.40
2022-10-13T16:10:10.419Z,63.44
2022-10-13T16:12:37.566Z,63.25
2022-10-13T16:15:07.060Z,63.54
2022-10-13T16:17:34.985Z,63.36
2022-10-13T16:20:02.494Z,64.07
2022-10-13T16:22:31.286Z,64.03
2022-10-13T16:24:58.883Z,64.00
2022-10-13T16:27:26.754Z,63.79
2022-10-13T16:29:53.803Z,64.03
2022-10-13T16:32:21.378Z,64.14
2022-10-13T16:34:49.204Z,64.13
2022-10-13T16:37:19.828Z,64.08
2022-10-13T16:39:51.513Z,64.44
2022-10-13T16:42:19.359Z,64.19
2022-10-13T16:44:46.478Z,64.46
2022-10-13T16:47:17.442Z,64.11
2022-10-13T16:49:46.281Z,64.24
2022-10-13T16:52:15.360Z,64.36
2022-10-13T16:54:44.242Z,64.32
2022-10-13T16:57:11.312Z,64.39
2022-10-13T16:59:38.421Z,64.81
2022-10-13T17:02:05.593Z,64.98
2022-10-13T17:04:32.802Z,65.09
2022-10-13T17:07:00.178Z,64.80
2022-10-13T17:09:27.413Z,64.79
2022-10-13T17:11:55.173Z,64.83
2022-10-13T17:14:22.227Z,65.04
2022-10-13T17:16:52.093Z,65.03
2022-10-13T17:19:21.273Z,64.84
2022-10-13T17:21:48.368Z,65.17
2022-10-13T17:24:17.150Z,65.13
2022-10-13T17:26:44.302Z,65.37
2022-10-13T17:29:11.508Z,65.44
2022-10-13T17:31:38.551Z,65.87
2022-10-13T17:34:06.471Z,65.96
2022-10-13T17:36:34.567Z,65.72
2022-10-13T17:39:09.951Z,65.99
2022-10-13T17:41:41.655Z,66.01
2022-10-13T17:44:10.089Z,65.99
2022-10-13T17:46:39.179Z,65.99
2022-10-13T17:49:09.481Z,66.11
2022-10-13T17:51:37.136Z,66.27
2022-10-13T17:54:05.502Z,66.55
2022-10-13T17:56:34.163Z,66.49
2022-10-13T17:59:02.428Z,66.60
2022-10-13T18:01:34.526Z,66.83
2022-10-13T18:04:07.513Z,67.03
2022-10-13T18:06:40.331Z,66.83
2022-10-13T18:09:14.471Z,66.99
2022-10-13T18:11:47.105Z,67.03
2022-10-13T18:14:19.163Z,67.46
2022-10-13T18:16:50.414Z,67.74
2022-10-13T18:19:17.587Z,67.59
2022-10-13T18:21:44.615Z,67.94
2022-10-13T18:24:13.472Z,67.65
2022-10-13T18:26:41.779Z,67.80
2022-10-13T18:29:11.062Z,67.74
2022-10-13T18:31:40.685Z,67.79
2022-10-13T18:34:14.193Z,67.35
2022-10-13T18:36:44.572Z,67.51
2022-10-13T18:39:14.631Z,67.29
2022-10-13T18:41:46.190Z,66.91
2022-10-13T18:44:13.885Z,66.72
2022-10-13T18:46:42.679Z,66.70
2022-10-13T18:49:14.003Z,66.44
2022-10-13T18:51:43.965Z,66.42
2022-10-13T18:54:11.916Z,66.30
2022-10-13T18:56:39.207Z,65.94
2022-10-13T18:59:08.107Z,65.98
2022-10-13T19:01:36.976Z,66.15
2022-10-13T19:04:05.559Z,65.65
2022-10-13T19:06:32.875Z,65.73
2022-10-13T19:09:02.171Z,65.49
2022-10-13T19:11:30.405Z,65.08
2022-10-13T19:13:58.572Z,65.47
2022-10-13T19:16:28.954Z,65.38
2022-10-13T19:18:56.334Z,65.00
2022-10-13T19:21:23.923Z,64.78
2022-10-13T19:23:52.411Z,65.01
2022-10-13T19:26:24.524Z,64.71
2022-10-13T19:28:57.015Z,64.78
2022-10-13T19:31:26.187Z,64.93
2022-10-13T19:33:53.753Z,64.75
2022-10-13T19:36:33.380Z,64.53
2022-10-13T19:39:05.462Z,64.72
2022-10-13T19:41:33.527Z,64.40
2022-10-13T19:44:01.225Z,64.67
2022-10-13T19:46:40.403Z,64.21
2022-10-13T19:49:08.196Z,64.11
2022-10-13T19:51:37.119Z,64.08
2022-10-13T19:54:05.148Z,64.12
2022-10-13T19:56:33.068Z,64.26
2022-10-13T19:59:02.010Z,64.04
2022-10-13T20:01:30.110Z,64.15
2022-10-13T20:03:58.325Z,63.85
2022-10-13T20:06:25.452Z,64.15
2022-10-13T20:08:52.694Z,64.21
2022-10-13T20:11:23.924Z,64.00
2022-10-13T20:13:52.153Z,64.31
2022-10-13T20:16:22.937Z,64.08
2022-10-13T20:18:56.840Z,63.94
2022-10-13T20:21:25.434Z,64.33
2022-10-13T20:23:53.371Z,64.44
2022-10-13T20:26:21.166Z,64.14
2022-10-13T20:28:50.259Z,64.25
2022-10-13T20:31:19.443Z,63.84
2022-10-13T20:33:49.834Z,63.95
2022-10-13T20:36:19.120Z,63.94
2022-10-13T20:38:47.566Z,64.26
2022-10-13T20:41:17.144Z,64.40
2022-10-13T20:43:45.048Z,64.28
2022-10-13T20:46:13.330Z,64.14
2022-10-13T20:49:08.734Z,64.40
2022-10-13T20:51:28.497Z,64.25
2022-10-13T20:53:55.706Z,64.24
2022-10-13T20:56:24.894Z,64.60
2022-10-13T20:58:52.497Z,64.21
2022-10-13T21:01:21.093Z,64.62
2022-10-13T21:03:52.443Z,64.43
2022-10-13T21:06:20.107Z,64.80
2022-10-13T21:08:47.809Z,64.58
2022-10-13T21:11:16.762Z,64.38
2022-10-13T21:13:45.193Z,64.52
2022-10-13T21:16:16.230Z,64.48
2022-10-13T21:18:49.140Z,64.83
2022-10-13T21:21:18.913Z,64.94
2022-10-13T21:23:57.204Z,64.77
2022-10-13T21:26:26.584Z,64.37
2022-10-13T21:28:53.854Z,64.64
2022-10-13T21:31:22.593Z,64.53
2022-10-13T21:33:50.541Z,64.55
2022-10-13T21:36:22.171Z,64.84
2022-10-13T21:38:53.152Z,64.58
2022-10-13T21:41:21.222Z,64.80
2022-10-13T21:43:49.102Z,64.90
2022-10-13T21:46:17.651Z,65.02
2022-10-13T21:48:46.421Z,65.13
2022-10-13T21:51:24.049Z,65.09
2022-10-13T21:53:53.453Z,65.24
2022-10-13T21:56:21.545Z,65.33
2022-10-13T21:58:49.347Z,64.92
2022-10-13T22:01:17.735Z,64.90
2022-10-13T22:03:47.221Z,64.90
2022-10-13T22:06:19.484Z,65.10
2022-10-13T22:08:51.447Z,64.88
2022-10-13T22:11:23.635Z,65.11
2022-10-13T22:13:51.084Z,64.94
2022-10-13T22:16:21.927Z,65.04
2022-10-13T22:18:52.977Z,65.26
2022-10-13T22:21:26.696Z,65.21
2022-10-13T22:23:57.572Z,65.30
2022-10-13T22:26:25.934Z,64.95
2022-10-13T22:28:53.450Z,65.40
2022-10-13T22:31:20.883Z,65.72
2022-10-13T22:33:47.887Z,65.39
2022-10-13T22:36:18.143Z,65.29
2022-10-13T22:38:47.107Z,65.39
2022-10-13T22:41:15.358Z,65.38
2022-10-13T22:43:46.832Z,65.10
2022-10-13T22:46:15.635Z,65.10
2022-10-13T22:48:43.738Z,65.38
2022-10-13T22:51:13.614Z,65.19
2022-10-13T22:53:40.726Z,64.80
2022-10-13T22:56:14.102Z,65.16
2022-10-13T22:58:41.706Z,64.97
2022-10-13T23:01:14.555Z,65.24
2022-10-13T23:03:42.318Z,65.20
2022-10-13T23:06:14.203Z,65.09
2022-10-13T23:08:41.694Z,64.93
2022-10-13T23:11:08.957Z,65.02
2022-10-13T23:13:36.767Z,64.96
2022-10-13T23:16:13.010Z,64.78
2022-10-13T23:18:43.562Z,64.98
2022-10-13T23:21:26.258Z,65.05
2022-10-13T23:24:01.780Z,65.05
2022-10-13T23:26:29.836Z,64.94
2022-10-13T23:28:58.046Z,64.90
2022-10-13T23:31:26.907Z,64.88
2022-10-13T23:33:54.346Z,65.00
2022-10-13T23:36:24.423Z,65.11
2022-10-13T23:38:59.678Z,64.72
2022-10-13T23:41:26.984Z,64.95
2022-10-13T23:43:54.093Z,64.70
2022-10-13T23:46:21.498Z,64.98
2022-10-13T23:48:48.560Z,64.61
2022-10-13T23:51:20.949Z,64.62
2022-10-13T23:53:48.233Z,65.01
2022-10-13T23:56:15.922Z,65.06
2022-10-13T23:58:44.213Z,64.96
